Time;durP1;ratioP1;P1;durP2;ratioP2;P2;SDS_P1;SDS_P2;PMS_P1;PMS_P2;Temp;Humidity;BMP_temperature;BMP_pressure;BME280_temperature;BME280_humidity;BME280_pressure;Samples;Min_cycle;Max_cycle;Signal;HPM_P1;HPM_P2
2023/08/31 00:02:10;;;;;;;5.28;2.55;;;12.30;99.90;;;;;;4988995;28;20046;-78
2023/08/31 00:04:36;;;;;;;6.05;2.40;;;12.30;99.90;;;;;;4984659;28;20047;-78
2023/08/31 00:07:02;;;;;;;4.22;2.10;;;12.30;99.90;;;;;;4971315;28;20034;-78
2023/08/31 00:09:29;;;;;;;5.32;1.70;;;12.20;99.90;;;;;;4975950;28;20043;-78
2023/08/31 00:11:56;;;;;;;5.35;2.20;;;12.20;99.90;;;;;;4976091;28;20088;-78
2023/08/31 00:14:26;;;;;;;6.10;2.10;;;12.20;99.90;;;;;;4984195;28;20052;-78
2023/08/31 00:16:52;;;;;;;6.28;2.30;;;12.10;99.90;;;;;;4983015;28;20101;-79
2023/08/31 00:19:19;;;;;;;6.95;2.42;;;12.10;99.90;;;;;;4979761;28;20046;-78
2023/08/31 00:21:45;;;;;;;5.95;2.20;;;12.10;99.90;;;;;;4977860;28;20042;-78
2023/08/31 00:24:10;;;;;;;5.10;1.80;;;12.00;99.90;;;;;;4980890;28;20568;-79
2023/08/31 00:26:40;;;;;;;5.95;1.90;;;12.00;99.90;;;;;;4986493;28;20118;-78
2023/08/31 00:29:07;;;;;;;4.43;1.77;;;12.00;99.90;;;;;;4972952;28;20052;-79
2023/08/31 00:31:33;;;;;;;5.40;2.05;;;12.00;99.90;;;;;;4986890;28;20046;-78
2023/08/31 00:34:04;;;;;;;7.60;2.08;;;12.00;99.90;;;;;;4985442;28;20142;-78
2023/08/31 00:36:31;;;;;;;6.00;1.70;;;12.00;99.90;;;;;;4981479;28;20050;-77
2023/08/31 00:38:57;;;;;;;5.72;1.77;;;12.00;99.90;;;;;;4980204;28;20073;-78
2023/08/31 00:41:23;;;;;;;4.68;1.85;;;12.10;99.90;;;;;;4986264;28;20480;-78
2023/08/31 00:43:48;;;;;;;6.75;1.73;;;12.00;99.90;;;;;;4980755;28;20097;-78
2023/08/31 00:46:14;;;;;;;5.70;2.00;;;12.00;99.90;;;;;;4990428;28;20100;-77
2023/08/31 00:48:41;;;;;;;5.97;1.63;;;12.00;99.90;;;;;;4991120;28;20835;-77
2023/08/31 00:51:07;;;;;;;4.25;1.55;;;12.00;99.90;;;;;;4985413;28;20038;-78
2023/08/31 00:53:33;;;;;;;2.97;1.60;;;12.00;99.90;;;;;;4991363;28;20040;-78
2023/08/31 00:55:59;;;;;;;4.25;1.80;;;12.00;99.90;;;;;;4986144;28;20046;-78
2023/08/31 00:58:25;;;;;;;4.38;1.77;;;12.00;99.90;;;;;;4987226;28;20042;-78
2023/08/31 01:01:12;;;;;;;5.45;2.50;;;12.00;99.90;;;;;;4983714;28;20051;-78
2023/08/31 01:03:58;;;;;;;6.25;1.80;;;12.10;99.90;;;;;;4991640;28;20046;-78
2023/08/31 01:06:36;;;;;;;3.67;1.10;;;12.00;99.90;;;;;;4971974;28;20054;-77
2023/08/31 01:09:30;;;;;;;6.40;2.15;;;12.00;99.90;;;;;;4982006;28;20042;-78
2023/08/31 01:12:31;;;;;;;8.27;2.25;;;12.00;99.90;;;;;;4982132;28;20320;-78
2023/08/31 01:15:04;;;;;;;3.75;1.48;;;12.10;99.90;;;;;;4974424;28;20062;-78
2023/08/31 01:17:31;;;;;;;6.60;1.70;;;12.00;99.90;;;;;;4995709;28;20053;-77
2023/08/31 01:20:00;;;;;;;8.32;1.70;;;11.90;99.90;;;;;;4986778;28;20127;-78
2023/08/31 01:22:42;;;;;;;5.82;1.60;;;11.90;99.90;;;;;;4993858;28;20052;-78
2023/08/31 01:25:09;;;;;;;4.60;1.35;;;11.90;99.90;;;;;;4978233;28;20076;-78
2023/08/31 01:27:36;;;;;;;6.80;1.50;;;11.90;99.90;;;;;;4967220;28;20030;-77
2023/08/31 01:30:04;;;;;;;6.97;1.48;;;11.90;99.90;;;;;;4980535;28;20048;-77
2023/08/31 01:32:30;;;;;;;3.00;1.15;;;11.90;99.90;;;;;;4975914;28;20500;-78
2023/08/31 01:35:01;;;;;;;6.18;2.40;;;11.90;99.90;;;;;;4980446;28;20128;-77
2023/08/31 01:37:37;;;;;;;4.65;1.33;;;11.80;99.90;;;;;;4980875;28;20082;-78
2023/08/31 01:40:17;;;;;;;5.43;1.40;;;11.80;99.90;;;;;;4985565;28;20049;-78
2023/08/31 01:42:44;;;;;;;5.45;1.70;;;11.80;99.90;;;;;;4978477;28;20532;-80
2023/08/31 01:45:14;;;;;;;5.38;1.95;;;11.80;99.90;;;;;;4976828;28;20046;-78
2023/08/31 01:47:40;;;;;;;8.52;1.63;;;11.80;99.90;;;;;;4989037;28;20045;-79
2023/08/31 01:50:06;;;;;;;3.92;1.38;;;11.80;99.90;;;;;;4981212;28;20053;-78
2023/08/31 01:52:31;;;;;;;6.15;1.95;;;11.80;99.90;;;;;;4966246;28;20065;-78
2023/08/31 01:54:57;;;;;;;7.57;1.70;;;11.70;99.90;;;;;;4977577;28;20144;-78
2023/08/31 01:57:23;;;;;;;6.43;1.40;;;11.70;99.90;;;;;;4984297;28;20039;-78
2023/08/31 01:59:48;;;;;;;3.42;1.30;;;11.70;99.90;;;;;;4982387;28;20485;-79
2023/08/31 02:02:14;;;;;;;5.95;1.40;;;11.70;99.90;;;;;;4990115;28;20485;-78
2023/08/31 02:04:40;;;;;;;4.40;1.52;;;11.70;99.90;;;;;;4972297;28;20321;-79
2023/08/31 02:07:05;;;;;;;5.03;1.45;;;11.60;99.90;;;;;;4974599;28;20054;-78
2023/08/31 02:09:31;;;;;;;10.48;1.25;;;11.60;99.90;;;;;;4988272;28;20049;-79
2023/08/31 02:11:57;;;;;;;5.10;1.60;;;11.50;99.90;;;;;;4972249;28;20052;-79
2023/08/31 02:14:23;;;;;;;10.15;1.67;;;11.50;99.90;;;;;;4982078;28;20043;-78
2023/08/31 02:16:49;;;;;;;6.03;1.30;;;11.50;99.90;;;;;;4974456;28;20042;-78
2023/08/31 02:19:14;;;;;;;3.67;1.40;;;11.50;99.90;;;;;;4977606;28;20050;-78
2023/08/31 02:21:40;;;;;;;5.40;1.45;;;11.40;99.90;;;;;;4979306;28;20557;-78
2023/08/31 02:24:06;;;;;;;8.63;1.40;;;11.40;99.90;;;;;;4980183;28;20042;-79
2023/08/31 02:26:32;;;;;;;5.90;1.60;;;11.40;99.90;;;;;;4977884;28;20121;-79
2023/08/31 02:28:58;;;;;;;4.68;1.20;;;11.40;99.90;;;;;;4984583;28;20076;-78
2023/08/31 02:31:24;;;;;;;8.77;1.55;;;11.30;99.90;;;;;;4979520;28;20070;-79
2023/08/31 02:33:49;;;;;;;3.53;1.08;;;11.30;99.90;;;;;;4982793;28;20048;-79
2023/08/31 02:36:15;;;;;;;5.28;1.65;;;11.20;99.90;;;;;;4981872;28;20128;-79
2023/08/31 02:38:41;;;;;;;7.68;1.30;;;11.30;99.90;;;;;;4979907;28;20046;-79
2023/08/31 02:41:07;;;;;;;3.63;1.33;;;11.30;99.90;;;;;;4975138;28;20034;-79
2023/08/31 02:43:32;;;;;;;6.95;1.30;;;11.30;99.90;;;;;;4978493;28;20042;-79
2023/08/31 02:46:02;;;;;;;7.25;1.02;;;11.20;99.90;;;;;;4989060;28;20045;-79
2023/08/31 02:48:29;;;;;;;5.20;1.50;;;11.20;99.90;;;;;;4982206;28;20109;-78
2023/08/31 02:51:02;;;;;;;7.55;1.83;;;11.20;99.90;;;;;;4985375;28;20070;-79
2023/08/31 02:53:31;;;;;;;4.05;1.23;;;11.20;99.90;;;;;;4980169;28;20034;-78
2023/08/31 02:55:57;;;;;;;4.30;1.10;;;11.20;99.90;;;;;;4962199;28;20449;-78
2023/08/31 02:58:23;;;;;;;5.63;1.25;;;11.20;99.90;;;;;;4984144;28;20046;-78
2023/08/31 03:00:49;;;;;;;5.03;1.30;;;11.20;99.90;;;;;;4983554;28;20042;-77
2023/08/31 03:03:15;;;;;;;4.25;1.10;;;11.20;99.90;;;;;;4995567;28;20046;-78
2023/08/31 03:05:41;;;;;;;4.03;1.60;;;11.20;99.90;;;;;;4985696;28;20042;-78
2023/08/31 03:08:07;;;;;;;4.90;1.77;;;11.20;99.90;;;;;;4976997;28;20557;-78
2023/08/31 03:10:33;;;;;;;7.13;1.50;;;11.40;99.90;;;;;;4980445;28;20039;-79
2023/08/31 03:12:58;;;;;;;7.97;1.75;;;11.20;99.90;;;;;;4979966;28;20042;-78
2023/08/31 03:15:24;;;;;;;5.03;1.65;;;11.10;99.90;;;;;;4982306;28;20359;-78
2023/08/31 03:17:50;;;;;;;4.05;2.20;;;11.20;99.90;;;;;;4978156;28;20031;-78
2023/08/31 03:20:15;;;;;;;5.45;1.77;;;11.20;99.90;;;;;;4963497;28;20126;-78
2023/08/31 03:22:41;;;;;;;6.30;1.90;;;11.20;99.90;;;;;;4981533;28;20122;-79
2023/08/31 03:25:08;;;;;;;5.30;1.80;;;11.10;99.90;;;;;;4973946;28;20035;-79
2023/08/31 03:27:33;;;;;;;4.22;1.48;;;11.10;99.90;;;;;;4981188;28;20039;-79
2023/08/31 03:29:59;;;;;;;4.25;1.48;;;11.10;99.90;;;;;;4984080;28;20057;-78
2023/08/31 03:32:25;;;;;;;5.50;2.28;;;11.10;99.90;;;;;;4977091;28;20039;-79
2023/08/31 03:34:51;;;;;;;6.72;2.08;;;11.10;99.90;;;;;;4989217;28;20057;-79
2023/08/31 03:37:16;;;;;;;5.97;1.98;;;11.10;99.90;;;;;;4979305;28;20057;-79
2023/08/31 03:39:42;;;;;;;6.63;2.20;;;11.10;99.90;;;;;;4984273;28;20039;-79
2023/08/31 03:42:09;;;;;;;7.20;2.65;;;11.10;99.90;;;;;;4979227;28;20046;-79
2023/08/31 03:44:35;;;;;;;7.70;2.22;;;11.20;99.90;;;;;;4985121;28;20038;-79
2023/08/31 03:47:01;;;;;;;5.68;2.67;;;11.10;99.90;;;;;;4996136;28;20041;-79
2023/08/31 03:49:27;;;;;;;3.75;1.80;;;11.20;99.90;;;;;;4986206;28;20037;-79
2023/08/31 03:51:53;;;;;;;7.32;2.33;;;11.20;99.90;;;;;;4990149;28;20039;-79
2023/08/31 03:54:19;;;;;;;6.50;2.58;;;11.20;99.90;;;;;;4981832;28;20382;-79
2023/08/31 03:56:45;;;;;;;5.03;2.05;;;11.20;99.90;;;;;;4987359;28;20033;-79
2023/08/31 03:59:12;;;;;;;5.80;2.40;;;11.20;99.90;;;;;;4984981;28;20666;-79
2023/08/31 04:01:37;;;;;;;5.20;2.75;;;11.20;99.90;;;;;;4984557;28;20076;-79
2023/08/31 04:04:03;;;;;;;8.77;2.20;;;11.20;99.90;;;;;;4981038;28;20619;-79
2023/08/31 04:06:29;;;;;;;8.80;2.83;;;11.20;99.90;;;;;;4987812;28;20046;-79
2023/08/31 04:08:55;;;;;;;5.43;2.00;;;11.20;99.90;;;;;;5007096;28;20050;-79
2023/08/31 04:11:21;;;;;;;5.43;2.38;;;11.20;99.90;;;;;;4983757;28;20045;-79
2023/08/31 04:13:47;;;;;;;4.65;2.40;;;11.20;99.90;;;;;;4982342;28;20043;-79
2023/08/31 04:16:13;;;;;;;4.53;2.40;;;11.20;99.90;;;;;;4982362;28;20595;-79
2023/08/31 04:18:38;;;;;;;12.23;3.13;;;11.20;99.90;;;;;;4961018;28;20127;-79
2023/08/31 04:21:06;;;;;;;5.75;3.00;;;11.20;99.90;;;;;;4987589;28;20038;-79
2023/08/31 04:23:32;;;;;;;6.93;2.70;;;11.20;99.90;;;;;;4983852;28;20069;-79
2023/08/31 04:25:59;;;;;;;9.15;3.72;;;11.20;99.90;;;;;;4975677;28;20441;-79
2023/08/31 04:28:24;;;;;;;7.70;2.63;;;11.20;99.90;;;;;;4984785;28;20072;-79
2023/08/31 04:30:50;;;;;;;7.05;3.55;;;11.20;99.90;;;;;;4980217;28;20043;-79
2023/08/31 04:33:16;;;;;;;7.30;3.55;;;11.20;99.90;;;;;;5002765;28;20275;-79
2023/08/31 04:35:41;;;;;;;5.05;3.25;;;11.30;99.90;;;;;;4980760;28;20030;-79
2023/08/31 04:38:07;;;;;;;7.35;3.90;;;11.30;99.90;;;;;;4983240;28;20057;-78
2023/08/31 04:40:33;;;;;;;5.40;2.92;;;11.30;99.90;;;;;;4982176;28;20047;-79
2023/08/31 04:42:59;;;;;;;7.70;4.10;;;11.30;99.90;;;;;;4982744;28;20053;-79
2023/08/31 04:45:24;;;;;;;9.13;5.28;;;11.30;99.90;;;;;;4976679;28;20137;-79
2023/08/31 04:47:51;;;;;;;8.07;4.80;;;11.30;99.90;;;;;;4975959;28;20042;-79
2023/08/31 04:50:17;;;;;;;8.75;5.05;;;11.30;99.90;;;;;;4981245;28;20058;-79
2023/08/31 04:52:43;;;;;;;10.35;5.53;;;11.30;99.90;;;;;;4986497;28;20097;-78
2023/08/31 04:55:12;;;;;;;10.50;6.53;;;11.30;99.90;;;;;;4984146;28;20047;-78
2023/08/31 04:57:38;;;;;;;5.20;3.20;;;11.30;99.90;;;;;;4981716;28;20053;-78
2023/08/31 05:00:04;;;;;;;10.25;6.13;;;11.30;99.90;;;;;;4984503;28;20494;-78
2023/08/31 05:02:30;;;;;;;6.85;4.47;;;11.30;99.90;;;;;;4984886;28;20493;-78
2023/08/31 05:04:56;;;;;;;14.10;6.28;;;11.30;99.90;;;;;;5004840;28;20085;-78
2023/08/31 05:07:21;;;;;;;10.02;5.65;;;11.30;99.90;;;;;;4972244;28;20046;-78
2023/08/31 05:09:47;;;;;;;10.32;5.82;;;11.30;99.90;;;;;;4978860;28;20035;-78
2023/08/31 05:12:13;;;;;;;12.25;7.30;;;11.30;99.90;;;;;;4980663;28;20043;-80
2023/08/31 05:14:39;;;;;;;15.63;8.75;;;11.30;99.90;;;;;;4986335;28;20041;-80
2023/08/31 05:17:06;;;;;;;10.60;5.90;;;11.30;99.90;;;;;;4957811;28;20478;-78
2023/08/31 05:19:31;;;;;;;11.40;6.78;;;11.30;99.90;;;;;;4983290;28;20045;-78
2023/08/31 05:21:57;;;;;;;11.52;7.07;;;11.30;99.90;;;;;;4986821;28;20088;-78
2023/08/31 05:24:23;;;;;;;8.85;5.43;;;11.30;99.90;;;;;;4983481;28;20050;-78
2023/08/31 05:26:52;;;;;;;9.10;5.15;;;11.30;99.90;;;;;;4975404;28;20140;-78
2023/08/31 05:29:17;;;;;;;9.77;5.35;;;11.40;99.90;;;;;;4985740;28;20085;-77
2023/08/31 05:31:43;;;;;;;6.72;4.82;;;11.40;99.90;;;;;;4987563;28;20492;-78
2023/08/31 05:34:17;;;;;;;11.95;7.38;;;11.40;99.90;;;;;;4984001;28;20034;-78
2023/08/31 05:36:43;;;;;;;9.27;6.32;;;11.40;99.90;;;;;;4972574;28;20050;-77
2023/08/31 05:39:09;;;;;;;8.50;5.35;;;11.40;99.90;;;;;;5004732;28;20042;-77
2023/08/31 05:41:35;;;;;;;7.55;4.97;;;11.40;99.90;;;;;;4986508;28;20097;-79
2023/08/31 05:44:01;;;;;;;13.10;7.57;;;11.40;99.90;;;;;;4991235;28;20058;-78
2023/08/31 05:46:27;;;;;;;9.75;4.60;;;11.40;99.90;;;;;;4977445;28;20053;-79
2023/08/31 05:48:52;;;;;;;8.88;6.55;;;11.50;99.90;;;;;;4974678;28;20034;-79
2023/08/31 05:51:18;;;;;;;4.90;2.85;;;11.50;99.90;;;;;;4993771;28;20047;-79
2023/08/31 05:53:44;;;;;;;12.38;5.63;;;11.50;99.90;;;;;;4982736;28;20050;-79
2023/08/31 05:56:09;;;;;;;6.72;4.55;;;11.50;99.90;;;;;;4980525;28;20093;-78
2023/08/31 05:58:37;;;;;;;11.18;6.57;;;11.50;99.90;;;;;;4981479;28;20060;-79
2023/08/31 06:01:03;;;;;;;11.80;5.75;;;11.50;99.90;;;;;;4990521;28;20085;-79
2023/08/31 06:03:30;;;;;;;11.00;6.60;;;11.50;99.90;;;;;;4987021;28;20093;-78
2023/08/31 06:05:58;;;;;;;7.28;4.57;;;11.60;99.90;;;;;;4977764;28;20040;-78
2023/08/31 06:08:24;;;;;;;8.18;3.90;;;11.60;99.90;;;;;;4979942;28;20082;-78
2023/08/31 06:10:51;;;;;;;9.02;4.05;;;11.60;99.90;;;;;;4984826;28;20436;-79
2023/08/31 06:13:17;;;;;;;5.20;3.05;;;11.60;99.90;;;;;;4982171;28;20048;-79
2023/08/31 06:15:44;;;;;;;7.40;3.75;;;11.60;99.90;;;;;;4984183;28;20089;-80
2023/08/31 06:18:10;;;;;;;7.22;3.42;;;11.60;99.90;;;;;;4984759;28;20836;-79
2023/08/31 06:20:36;;;;;;;7.35;4.35;;;11.70;99.90;;;;;;4986424;28;20041;-79
2023/08/31 06:23:02;;;;;;;9.25;5.00;;;11.80;99.90;;;;;;4983352;28;20054;-79
2023/08/31 06:25:28;;;;;;;11.57;5.07;;;11.70;99.90;;;;;;4978411;28;20039;-79
2023/08/31 06:27:54;;;;;;;8.85;4.85;;;11.60;99.90;;;;;;4980993;28;20138;-79
2023/08/31 06:30:19;;;;;;;6.93;3.83;;;11.80;99.90;;;;;;4987576;28;20065;-79
2023/08/31 06:32:46;;;;;;;9.90;5.55;;;11.70;99.90;;;;;;4976010;28;20162;-79
2023/08/31 06:35:13;;;;;;;10.43;4.75;;;11.80;99.90;;;;;;4986187;28;20042;-79
2023/08/31 06:37:40;;;;;;;6.75;3.55;;;11.80;99.90;;;;;;4979965;28;20070;-78
2023/08/31 06:40:09;;;;;;;8.50;4.85;;;11.90;99.90;;;;;;4982033;28;20073;-79
2023/08/31 06:42:36;;;;;;;9.25;3.70;;;11.90;99.90;;;;;;4982233;28;20085;-79
2023/08/31 06:45:03;;;;;;;8.77;3.47;;;12.00;99.90;;;;;;4978265;28;20046;-79
2023/08/31 06:47:29;;;;;;;11.10;3.40;;;12.10;99.90;;;;;;5000922;28;20033;-79
2023/08/31 06:49:54;;;;;;;6.63;3.38;;;12.10;99.90;;;;;;4988233;28;20062;-79
2023/08/31 06:52:20;;;;;;;9.00;3.63;;;12.20;99.90;;;;;;4980849;28;20394;-79
2023/08/31 06:54:46;;;;;;;6.60;2.70;;;12.20;99.90;;;;;;4974984;28;20429;-79
2023/08/31 06:57:11;;;;;;;7.35;2.78;;;12.20;99.90;;;;;;4986648;28;20042;-79
2023/08/31 06:59:37;;;;;;;6.00;2.58;;;12.20;99.90;;;;;;4989098;28;20052;-79
2023/08/31 07:02:03;;;;;;;7.68;3.30;;;12.20;99.90;;;;;;4973102;28;20497;-80
2023/08/31 07:04:28;;;;;;;7.95;3.25;;;12.30;99.90;;;;;;4974478;28;20038;-80
2023/08/31 07:06:54;;;;;;;7.90;3.30;;;12.30;99.90;;;;;;4975048;28;20085;-80
2023/08/31 07:09:20;;;;;;;7.90;2.70;;;12.30;99.90;;;;;;4978298;28;20421;-80
2023/08/31 07:11:45;;;;;;;6.60;2.05;;;12.40;99.90;;;;;;4979148;28;20100;-79
2023/08/31 07:14:11;;;;;;;8.05;2.72;;;12.40;99.90;;;;;;4982538;28;20117;-79
2023/08/31 07:16:37;;;;;;;8.23;2.40;;;12.40;99.90;;;;;;4975015;28;20058;-79
2023/08/31 07:19:02;;;;;;;7.35;2.63;;;12.40;99.90;;;;;;4979672;28;20043;-79
2023/08/31 07:21:28;;;;;;;8.57;2.15;;;12.50;99.90;;;;;;4990990;28;20042;-78
2023/08/31 07:23:54;;;;;;;5.35;1.58;;;12.50;99.90;;;;;;4987584;28;20042;-80
2023/08/31 07:26:20;;;;;;;5.97;1.85;;;12.50;99.90;;;;;;4986304;28;20409;-78
2023/08/31 07:28:46;;;;;;;8.55;1.80;;;12.50;99.90;;;;;;4975700;28;20070;-78
2023/08/31 07:31:13;;;;;;;6.78;1.70;;;12.50;99.90;;;;;;4972499;28;20108;-78
2023/08/31 07:33:38;;;;;;;9.27;1.20;;;12.60;99.90;;;;;;4971933;28;20233;-78
2023/08/31 07:36:05;;;;;;;4.75;1.40;;;12.70;99.90;;;;;;4978166;28;20066;-78
2023/08/31 07:38:31;;;;;;;4.72;1.90;;;12.70;99.90;;;;;;4976999;28;20049;-77
2023/08/31 07:40:57;;;;;;;7.20;1.35;;;12.80;99.90;;;;;;4976449;28;20125;-78
2023/08/31 07:43:23;;;;;;;6.85;1.45;;;12.80;99.90;;;;;;4982666;28;20121;-79
2023/08/31 07:45:49;;;;;;;6.85;1.55;;;12.90;99.90;;;;;;4974898;28;20042;-79
2023/08/31 07:48:15;;;;;;;7.00;1.30;;;13.00;99.90;;;;;;4989946;28;20038;-78
2023/08/31 07:50:42;;;;;;;4.57;1.38;;;13.00;99.90;;;;;;4989592;28;20046;-78
2023/08/31 07:53:08;;;;;;;7.22;1.20;;;13.00;99.90;;;;;;4963282;28;20069;-78
2023/08/31 07:55:35;;;;;;;4.05;1.20;;;13.10;99.90;;;;;;4974600;28;20034;-78
2023/08/31 07:58:01;;;;;;;5.50;1.17;;;13.20;99.90;;;;;;4973912;28;20073;-78
2023/08/31 08:00:26;;;;;;;5.32;1.00;;;13.20;99.90;;;;;;4974849;28;20486;-78
2023/08/31 08:02:52;;;;;;;6.90;1.30;;;13.30;99.90;;;;;;4972061;28;20121;-78
2023/08/31 08:05:18;;;;;;;4.65;0.98;;;13.30;99.90;;;;;;4973014;28;20043;-78
2023/08/31 08:07:44;;;;;;;7.18;1.42;;;13.40;99.90;;;;;;4975435;28;20041;-78
2023/08/31 08:10:11;;;;;;;3.28;0.80;;;13.40;99.90;;;;;;4973716;28;20130;-78
2023/08/31 08:12:39;;;;;;;5.88;0.80;;;13.50;99.90;;;;;;4974013;28;20088;-79
2023/08/31 08:15:07;;;;;;;3.80;0.70;;;13.60;99.90;;;;;;4973141;28;20050;-79
2023/08/31 08:17:32;;;;;;;5.53;0.70;;;13.60;99.90;;;;;;4979600;28;20061;-79
2023/08/31 08:19:58;;;;;;;3.00;0.80;;;13.70;99.90;;;;;;4982213;28;20513;-79
2023/08/31 08:22:25;;;;;;;2.70;0.80;;;13.70;99.90;;;;;;4976562;28;20470;-79
2023/08/31 08:24:51;;;;;;;3.72;0.70;;;13.80;99.90;;;;;;4972897;28;20047;-79
2023/08/31 08:27:18;;;;;;;2.35;0.60;;;13.90;99.90;;;;;;4973546;28;20560;-79
2023/08/31 08:29:45;;;;;;;4.70;0.80;;;13.90;99.90;;;;;;4987118;28;20053;-79
2023/08/31 08:32:11;;;;;;;3.90;0.70;;;14.00;99.90;;;;;;4972981;28;20054;-79
2023/08/31 08:34:36;;;;;;;3.22;0.80;;;14.10;99.90;;;;;;4973017;28;20470;-79
2023/08/31 08:37:03;;;;;;;3.40;0.80;;;14.20;99.90;;;;;;4973718;28;20133;-79
2023/08/31 08:39:29;;;;;;;6.88;1.13;;;14.30;99.90;;;;;;4972697;28;20464;-79
2023/08/31 08:41:58;;;;;;;7.70;1.42;;;14.50;99.90;;;;;;4976361;28;20046;-79
2023/08/31 08:44:25;;;;;;;6.40;1.05;;;14.60;99.90;;;;;;4989887;28;20046;-79
2023/08/31 08:46:51;;;;;;;2.08;0.80;;;14.60;99.90;;;;;;4973419;28;20538;-79
2023/08/31 08:49:18;;;;;;;4.35;0.88;;;14.70;99.90;;;;;;4981096;28;20043;-80
2023/08/31 08:51:46;;;;;;;3.03;0.93;;;14.80;99.90;;;;;;4972082;28;20075;-79
2023/08/31 08:54:13;;;;;;;4.18;0.80;;;14.90;99.90;;;;;;4972453;28;20124;-79
2023/08/31 08:56:39;;;;;;;6.75;1.48;;;15.10;99.90;;;;;;4970818;28;20066;-80
2023/08/31 08:59:06;;;;;;;4.13;0.90;;;15.20;99.90;;;;;;4970716;28;20074;-80
2023/08/31 09:01:34;;;;;;;5.05;1.10;;;15.40;99.90;;;;;;4973141;28;20050;-80
2023/08/31 09:04:00;;;;;;;3.20;0.90;;;15.60;99.90;;;;;;4979840;28;20514;-80
2023/08/31 09:06:27;;;;;;;4.45;1.00;;;15.70;99.90;;;;;;4974325;28;20042;-80
2023/08/31 09:08:57;;;;;;;5.88;0.85;;;15.70;99.90;;;;;;4971960;28;20042;-80
2023/08/31 09:11:23;;;;;;;4.15;0.90;;;15.70;99.90;;;;;;4974054;28;20089;-80
2023/08/31 09:13:50;;;;;;;3.45;0.80;;;15.70;99.90;;;;;;4985698;28;20050;-80
2023/08/31 09:16:26;;;;;;;1.85;0.55;;;15.80;99.90;;;;;;4987049;28;20501;-80
2023/08/31 09:18:52;;;;;;;3.83;0.50;;;15.90;99.90;;;;;;4972773;28;20031;-80
2023/08/31 09:21:19;;;;;;;3.35;0.75;;;16.10;99.90;;;;;;4986186;28;20046;-80
2023/08/31 09:23:56;;;;;;;2.00;0.50;;;16.20;99.90;;;;;;4971898;28;20057;-79
2023/08/31 09:26:22;;;;;;;2.30;0.40;;;16.20;99.90;;;;;;4972104;28;20050;-79
2023/08/31 09:28:49;;;;;;;9.85;0.63;;;16.00;99.90;;;;;;4972043;28;20144;-79
2023/08/31 09:31:15;;;;;;;5.30;0.80;;;15.70;99.90;;;;;;4979542;28;20065;-78
2023/08/31 09:33:50;;;;;;;2.53;0.40;;;15.40;99.90;;;;;;4972397;28;20051;-78
2023/08/31 09:36:15;;;;;;;5.35;0.75;;;15.20;99.90;;;;;;4970759;28;20522;-78
2023/08/31 09:38:45;;;;;;;1.58;0.40;;;15.00;99.90;;;;;;4976812;28;20076;-78
2023/08/31 09:41:12;;;;;;;4.72;0.40;;;14.80;99.90;;;;;;4974723;28;20391;-79
2023/08/31 09:43:37;;;;;;;1.55;0.50;;;14.70;99.90;;;;;;4972395;28;20486;-78
2023/08/31 09:46:04;;;;;;;2.17;0.47;;;14.50;99.90;;;;;;4971418;28;20330;-78
2023/08/31 09:48:31;;;;;;;1.73;0.32;;;14.60;99.90;;;;;;4971859;28;20047;-79
2023/08/31 09:50:57;;;;;;;3.80;0.43;;;14.70;99.90;;;;;;4970618;28;20054;-80
2023/08/31 09:53:30;;;;;;;3.20;0.60;;;14.80;99.90;;;;;;4971785;28;20044;-79
2023/08/31 09:55:57;;;;;;;1.02;0.40;;;14.90;99.90;;;;;;4971306;28;20482;-80
2023/08/31 09:58:23;;;;;;;2.15;0.47;;;15.00;99.90;;;;;;4977858;28;20043;-79
2023/08/31 10:00:50;;;;;;;3.80;0.50;;;15.00;99.90;;;;;;4981447;28;20039;-79
2023/08/31 10:03:16;;;;;;;1.98;0.40;;;15.00;99.90;;;;;;4973613;28;20053;-78
2023/08/31 10:05:48;;;;;;;2.97;0.60;;;15.20;99.90;;;;;;4970159;28;20050;-77
2023/08/31 10:08:14;;;;;;;1.85;0.50;;;15.40;99.90;;;;;;4969304;28;20220;-79
2023/08/31 10:10:41;;;;;;;3.30;0.80;;;15.60;99.90;;;;;;4971165;28;20053;-79
2023/08/31 10:13:07;;;;;;;1.90;0.60;;;15.90;99.90;;;;;;4971137;28;20517;-79
2023/08/31 10:15:35;;;;;;;2.20;0.60;;;16.10;99.90;;;;;;4972355;28;20109;-79
2023/08/31 10:18:02;;;;;;;1.73;0.43;;;16.30;99.90;;;;;;4971280;28;20125;-78
2023/08/31 10:20:33;;;;;;;2.88;1.02;;;16.50;99.90;;;;;;4971661;28;20034;-78
2023/08/31 10:23:05;;;;;;;3.42;0.70;;;16.40;99.90;;;;;;4970506;28;20053;-78
2023/08/31 10:25:54;;;;;;;3.22;0.68;;;16.30;99.90;;;;;;4970468;28;20502;-78
2023/08/31 10:28:25;;;;;;;2.65;0.60;;;16.10;99.90;;;;;;4974530;28;20113;-78
2023/08/31 10:31:16;;;;;;;2.75;0.55;;;15.90;99.90;;;;;;4973474;28;20043;-80
2023/08/31 10:33:54;;;;;;;3.38;0.75;;;15.80;99.90;;;;;;4970621;28;20490;-80
2023/08/31 10:36:20;;;;;;;1.33;0.47;;;15.80;99.90;;;;;;4969213;28;20137;-80
2023/08/31 10:38:58;;;;;;;2.67;0.50;;;15.80;99.90;;;;;;4971603;28;20506;-80
2023/08/31 10:41:25;;;;;;;2.90;0.82;;;15.80;99.90;;;;;;4987315;28;20046;-80
2023/08/31 10:43:54;;;;;;;2.72;0.60;;;16.00;99.90;;;;;;4974910;28;20486;-80
2023/08/31 10:46:38;;;;;;;2.00;0.57;;;16.10;99.90;;;;;;4972564;28;20035;-80
2023/08/31 10:49:14;;;;;;;2.92;0.47;;;16.20;99.90;;;;;;4979035;28;20049;-79
2023/08/31 10:51:55;;;;;;;2.80;0.70;;;16.30;99.90;;;;;;4964589;28;20039;-80
2023/08/31 10:54:22;;;;;;;3.33;0.60;;;16.50;99.90;;;;;;4964560;28;20100;-79
2023/08/31 10:57:08;;;;;;;2.53;0.70;;;16.60;99.90;;;;;;4976315;28;20172;-79
2023/08/31 10:59:52;;;;;;;2.47;0.70;;;16.70;99.90;;;;;;4971893;28;20054;-79
2023/08/31 11:02:31;;;;;;;3.25;0.60;;;16.80;99.90;;;;;;4958504;28;20057;-79
2023/08/31 11:05:05;;;;;;;2.70;0.85;;;16.90;99.90;;;;;;4976522;28;20102;-79
2023/08/31 11:07:31;;;;;;;2.00;0.40;;;17.00;99.90;;;;;;4981217;28;20074;-79
2023/08/31 11:10:15;;;;;;;1.38;0.50;;;17.10;99.90;;;;;;4971026;28;20384;-79
2023/08/31 11:12:42;;;;;;;1.95;0.50;;;17.20;99.90;;;;;;4982102;28;20299;-79
2023/08/31 11:15:10;;;;;;;1.70;0.30;;;17.30;99.90;;;;;;4969367;28;20081;-79
2023/08/31 11:17:40;;;;;;;1.77;0.47;;;17.50;99.90;;;;;;4977168;28;20403;-79
2023/08/31 11:20:06;;;;;;;1.10;0.40;;;17.60;99.90;;;;;;4970095;28;20043;-79
2023/08/31 11:22:33;;;;;;;2.20;0.60;;;17.70;99.90;;;;;;4979592;28;20046;-79
2023/08/31 11:24:59;;;;;;;1.77;0.40;;;18.00;99.90;;;;;;4970989;28;20047;-79
2023/08/31 11:27:25;;;;;;;2.05;0.73;;;18.20;99.90;;;;;;4978783;28;20401;-79
2023/08/31 11:29:50;;;;;;;2.40;0.60;;;18.30;99.90;;;;;;4975312;28;20113;-79
2023/08/31 11:32:16;;;;;;;2.13;0.52;;;18.40;99.90;;;;;;4980879;28;20046;-79
2023/08/31 11:34:45;;;;;;;1.60;0.43;;;18.50;99.90;;;;;;4977739;28;20501;-79
2023/08/31 11:37:17;;;;;;;1.08;0.40;;;18.70;99.90;;;;;;4978233;28;20607;-78
2023/08/31 11:39:53;;;;;;;1.40;0.40;;;18.80;99.90;;;;;;4981381;28;20045;-80
2023/08/31 11:42:21;;;;;;;2.72;0.50;;;18.90;99.90;;;;;;4975773;28;20330;-79
2023/08/31 11:44:52;;;;;;;2.97;0.50;;;19.00;99.90;;;;;;4970507;28;20478;-80
2023/08/31 11:47:20;;;;;;;4.72;0.47;;;19.00;99.90;;;;;;4969024;28;20086;-79
2023/08/31 11:49:46;;;;;;;5.57;0.70;;;19.10;99.90;;;;;;4969602;28;20484;-79
2023/08/31 11:52:13;;;;;;;2.63;0.43;;;19.10;99.90;;;;;;4977690;28;20062;-78
2023/08/31 11:54:39;;;;;;;3.00;0.60;;;19.20;99.90;;;;;;4982851;28;20126;-78
2023/08/31 11:57:09;;;;;;;3.88;0.90;;;19.20;99.90;;;;;;4975081;28;20035;-78
2023/08/31 11:59:36;;;;;;;3.47;0.60;;;19.10;99.90;;;;;;4975804;28;20043;-78
2023/08/31 12:02:06;;;;;;;1.60;0.40;;;19.00;99.90;;;;;;4986419;28;20093;-78
2023/08/31 12:04:32;;;;;;;4.50;0.57;;;19.20;99.90;;;;;;4973347;28;20042;-79
2023/08/31 12:07:06;;;;;;;2.20;0.40;;;19.40;99.90;;;;;;4972638;28;20549;-79
2023/08/31 12:09:32;;;;;;;2.45;0.60;;;19.60;99.90;;;;;;4976975;28;20121;-81
2023/08/31 12:12:00;;;;;;;1.98;0.70;;;19.80;99.90;;;;;;4956069;28;20065;-78
2023/08/31 12:14:26;;;;;;;3.03;0.40;;;20.00;99.90;;;;;;4974005;28;20054;-78
2023/08/31 12:16:59;;;;;;;2.65;0.50;;;20.10;99.90;;;;;;4986442;28;20587;-79
2023/08/31 12:19:29;;;;;;;3.08;0.68;;;20.10;99.90;;;;;;4974426;28;20046;-79
2023/08/31 12:21:55;;;;;;;2.78;0.52;;;20.10;99.90;;;;;;4987736;28;20041;-77
2023/08/31 12:24:22;;;;;;;2.65;0.60;;;20.10;99.90;;;;;;4984770;28;20055;-77
2023/08/31 12:26:54;;;;;;;2.47;0.70;;;20.00;99.90;;;;;;4979204;28;20054;-78
2023/08/31 12:29:24;;;;;;;2.17;0.50;;;19.80;99.90;;;;;;4981876;28;20408;-79
2023/08/31 12:31:50;;;;;;;1.58;0.43;;;19.60;99.90;;;;;;4980121;28;20035;-77
2023/08/31 12:34:16;;;;;;;5.10;0.60;;;19.30;99.90;;;;;;4973084;28;20042;-78
2023/08/31 12:36:41;;;;;;;2.42;0.55;;;19.10;99.90;;;;;;4974156;28;20051;-77
2023/08/31 12:39:09;;;;;;;2.38;0.50;;;18.80;99.90;;;;;;4989166;28;20058;-78
2023/08/31 12:41:39;;;;;;;3.50;0.60;;;18.60;99.90;;;;;;4973780;28;20054;-78
2023/08/31 12:44:08;;;;;;;3.28;0.60;;;18.40;99.90;;;;;;4971264;28;20039;-79
2023/08/31 12:46:34;;;;;;;2.85;0.60;;;18.30;99.90;;;;;;4971869;28;20496;-82
2023/08/31 12:49:03;;;;;;;4.65;0.77;;;18.40;99.90;;;;;;4976233;28;20049;-77